sensor_id;sensor_type;location;lat;lon;timestamp;P1;durP1;ratioP1;P2;durP2;ratioP2
25319;SDS011;13256;49.012;8.610;2024-03-22T00:02:17;7.00;;;3.67;;
25319;SDS011;13256;49.012;8.610;2024-03-22T00:04:43;6.47;;;3.60;;
25319;SDS011;13256;49.012;8.610;2024-03-22T00:07:12;6.13;;;3.25;;
25319;SDS011;13256;49.012;8.610;2024-03-22T00:09:39;9.35;;;3.55;;
25319;SDS011;13256;49.012;8.610;2024-03-22T00:12:11;6.97;;;4.15;;
25319;SDS011;13256;49.012;8.610;2024-03-22T00:14:37;8.82;;;3.90;;
25319;SDS011;13256;49.012;8.610;2024-03-22T00:17:12;7.13;;;4.10;;
25319;SDS011;13256;49.012;8.610;2024-03-22T00:19:42;7.03;;;3.97;;
25319;SDS011;13256;49.012;8.610;2024-03-22T00:22:10;13.60;;;6.15;;
25319;SDS011;13256;49.012;8.610;2024-03-22T00:24:44;15.73;;;5.85;;
25319;SDS011;13256;49.012;8.610;2024-03-22T00:27:17;9.82;;;5.32;;
25319;SDS011;13256;49.012;8.610;2024-03-22T00:29:46;12.40;;;5.60;;
25319;SDS011;13256;49.012;8.610;2024-03-22T00:32:13;8.98;;;5.57;;
25319;SDS011;13256;49.012;8.610;2024-03-22T00:34:39;9.70;;;5.40;;
25319;SDS011;13256;49.012;8.610;2024-03-22T00:37:11;10.05;;;4.78;;
25319;SDS011;13256;49.012;8.610;2024-03-22T00:39:37;9.93;;;4.93;;
25319;SDS011;13256;49.012;8.610;2024-03-22T00:42:06;9.68;;;5.53;;
25319;SDS011;13256;49.012;8.610;2024-03-22T00:44:36;9.02;;;5.10;;
25319;SDS011;13256;49.012;8.610;2024-03-22T00:47:03;11.85;;;4.82;;
25319;SDS011;13256;49.012;8.610;2024-03-22T00:49:33;12.48;;;5.18;;
25319;SDS011;13256;49.012;8.610;2024-03-22T00:52:01;9.13;;;5.25;;
25319;SDS011;13256;49.012;8.610;2024-03-22T00:54:31;7.72;;;4.63;;
25319;SDS011;13256;49.012;8.610;2024-03-22T00:56:57;6.97;;;4.82;;
25319;SDS011;13256;49.012;8.610;2024-03-22T00:59:26;9.40;;;4.80;;
25319;SDS011;13256;49.012;8.610;2024-03-22T01:01:53;7.72;;;4.53;;
25319;SDS011;13256;49.012;8.610;2024-03-22T01:04:27;6.50;;;4.38;;
25319;SDS011;13256;49.012;8.610;2024-03-22T01:06:59;9.23;;;3.92;;
25319;SDS011;13256;49.012;8.610;2024-03-22T01:09:28;8.38;;;4.25;;
25319;SDS011;13256;49.012;8.610;2024-03-22T01:12:00;7.03;;;4.15;;
25319;SDS011;13256;49.012;8.610;2024-03-22T01:14:27;7.45;;;4.10;;
25319;SDS011;13256;49.012;8.610;2024-03-22T01:16:53;7.25;;;4.18;;
25319;SDS011;13256;49.012;8.610;2024-03-22T01:19:24;8.18;;;4.30;;
25319;SDS011;13256;49.012;8.610;2024-03-22T01:21:54;10.27;;;4.72;;
25319;SDS011;13256;49.012;8.610;2024-03-22T01:24:26;9.20;;;4.90;;
25319;SDS011;13256;49.012;8.610;2024-03-22T01:26:54;11.45;;;5.90;;
25319;SDS011;13256;49.012;8.610;2024-03-22T01:29:24;7.50;;;5.10;;
25319;SDS011;13256;49.012;8.610;2024-03-22T01:31:53;7.38;;;4.28;;
25319;SDS011;13256;49.012;8.610;2024-03-22T01:34:20;6.32;;;4.32;;
25319;SDS011;13256;49.012;8.610;2024-03-22T01:36:51;8.77;;;4.57;;
25319;SDS011;13256;49.012;8.610;2024-03-22T01:39:20;9.15;;;4.75;;
25319;SDS011;13256;49.012;8.610;2024-03-22T01:41:55;10.13;;;5.03;;
25319;SDS011;13256;49.012;8.610;2024-03-22T01:44:28;11.60;;;4.90;;
25319;SDS011;13256;49.012;8.610;2024-03-22T01:49:51;9.63;;;5.10;;
25319;SDS011;13256;49.012;8.610;2024-03-22T01:52:21;7.55;;;4.43;;
25319;SDS011;13256;49.012;8.610;2024-03-22T01:54:48;9.98;;;4.25;;
25319;SDS011;13256;49.012;8.610;2024-03-22T01:57:16;7.85;;;4.88;;
25319;SDS011;13256;49.012;8.610;2024-03-22T01:59:43;9.52;;;4.80;;
25319;SDS011;13256;49.012;8.610;2024-03-22T02:02:12;8.13;;;5.03;;
25319;SDS011;13256;49.012;8.610;2024-03-22T02:04:38;7.07;;;4.53;;
25319;SDS011;13256;49.012;8.610;2024-03-22T02:07:05;7.22;;;4.85;;
25319;SDS011;13256;49.012;8.610;2024-03-22T02:09:32;10.75;;;5.03;;
25319;SDS011;13256;49.012;8.610;2024-03-22T02:11:59;8.88;;;5.05;;
25319;SDS011;13256;49.012;8.610;2024-03-22T02:14:29;11.75;;;5.18;;
25319;SDS011;13256;49.012;8.610;2024-03-22T02:16:58;7.65;;;4.30;;
25319;SDS011;13256;49.012;8.610;2024-03-22T02:19:25;15.60;;;4.38;;
25319;SDS011;13256;49.012;8.610;2024-03-22T02:21:53;8.35;;;4.75;;
25319;SDS011;13256;49.012;8.610;2024-03-22T02:24:20;10.13;;;4.90;;
25319;SDS011;13256;49.012;8.610;2024-03-22T02:26:50;12.25;;;5.20;;
25319;SDS011;13256;49.012;8.610;2024-03-22T02:29:17;7.47;;;5.35;;
25319;SDS011;13256;49.012;8.610;2024-03-22T02:31:44;8.98;;;5.63;;
25319;SDS011;13256;49.012;8.610;2024-03-22T02:34:17;9.73;;;5.40;;
25319;SDS011;13256;49.012;8.610;2024-03-22T02:36:47;12.88;;;5.45;;
25319;SDS011;13256;49.012;8.610;2024-03-22T02:39:17;8.65;;;5.43;;
25319;SDS011;13256;49.012;8.610;2024-03-22T02:41:46;8.73;;;5.20;;
25319;SDS011;13256;49.012;8.610;2024-03-22T02:44:13;9.20;;;5.32;;
25319;SDS011;13256;49.012;8.610;2024-03-22T02:46:39;10.38;;;5.68;;
25319;SDS011;13256;49.012;8.610;2024-03-22T02:49:06;10.02;;;6.25;;
25319;SDS011;13256;49.012;8.610;2024-03-22T02:51:33;11.48;;;6.07;;
25319;SDS011;13256;49.012;8.610;2024-03-22T02:54:01;9.07;;;5.25;;
25319;SDS011;13256;49.012;8.610;2024-03-22T02:56:28;8.32;;;5.93;;
25319;SDS011;13256;49.012;8.610;2024-03-22T02:58:58;8.35;;;5.40;;
25319;SDS011;13256;49.012;8.610;2024-03-22T03:01:28;10.68;;;5.95;;
25319;SDS011;13256;49.012;8.610;2024-03-22T03:04:01;10.88;;;5.40;;
25319;SDS011;13256;49.012;8.610;2024-03-22T03:06:31;6.85;;;4.80;;
25319;SDS011;13256;49.012;8.610;2024-03-22T03:11:50;12.73;;;5.80;;
25319;SDS011;13256;49.012;8.610;2024-03-22T03:14:19;8.85;;;5.32;;
25319;SDS011;13256;49.012;8.610;2024-03-22T03:16:52;9.07;;;5.13;;
25319;SDS011;13256;49.012;8.610;2024-03-22T03:19:19;9.70;;;5.43;;
25319;SDS011;13256;49.012;8.610;2024-03-22T03:21:51;8.68;;;5.57;;
25319;SDS011;13256;49.012;8.610;2024-03-22T03:24:18;9.55;;;5.55;;
25319;SDS011;13256;49.012;8.610;2024-03-22T03:26:48;10.38;;;5.55;;
25319;SDS011;13256;49.012;8.610;2024-03-22T03:29:21;12.93;;;5.80;;
25319;SDS011;13256;49.012;8.610;2024-03-22T03:31:50;11.68;;;5.68;;
25319;SDS011;13256;49.012;8.610;2024-03-22T03:34:16;10.77;;;5.53;;
25319;SDS011;13256;49.012;8.610;2024-03-22T03:36:46;8.40;;;5.63;;
25319;SDS011;13256;49.012;8.610;2024-03-22T03:39:20;13.38;;;5.75;;
25319;SDS011;13256;49.012;8.610;2024-03-22T03:41:50;10.23;;;6.20;;
25319;SDS011;13256;49.012;8.610;2024-03-22T03:44:17;8.52;;;5.53;;
25319;SDS011;13256;49.012;8.610;2024-03-22T03:46:46;12.07;;;6.05;;
25319;SDS011;13256;49.012;8.610;2024-03-22T03:49:15;8.80;;;4.95;;
25319;SDS011;13256;49.012;8.610;2024-03-22T03:51:41;13.15;;;6.03;;
25319;SDS011;13256;49.012;8.610;2024-03-22T03:54:08;9.02;;;5.13;;
25319;SDS011;13256;49.012;8.610;2024-03-22T03:56:35;10.90;;;6.30;;
25319;SDS011;13256;49.012;8.610;2024-03-22T03:59:01;10.48;;;5.25;;
25319;SDS011;13256;49.012;8.610;2024-03-22T04:01:29;7.90;;;5.20;;
25319;SDS011;13256;49.012;8.610;2024-03-22T04:04:02;10.88;;;5.60;;
25319;SDS011;13256;49.012;8.610;2024-03-22T04:06:29;7.47;;;5.15;;
25319;SDS011;13256;49.012;8.610;2024-03-22T04:08:59;9.35;;;5.38;;
25319;SDS011;13256;49.012;8.610;2024-03-22T04:11:29;13.25;;;6.07;;
25319;SDS011;13256;49.012;8.610;2024-03-22T04:13:55;14.95;;;5.60;;
25319;SDS011;13256;49.012;8.610;2024-03-22T04:16:25;8.65;;;4.97;;
25319;SDS011;13256;49.012;8.610;2024-03-22T04:18:55;8.95;;;5.30;;
25319;SDS011;13256;49.012;8.610;2024-03-22T04:21:22;9.90;;;5.45;;
25319;SDS011;13256;49.012;8.610;2024-03-22T04:23:49;9.63;;;5.25;;
25319;SDS011;13256;49.012;8.610;2024-03-22T04:26:16;11.35;;;5.13;;
25319;SDS011;13256;49.012;8.610;2024-03-22T04:28:43;11.60;;;5.55;;
25319;SDS011;13256;49.012;8.610;2024-03-22T04:31:10;7.38;;;5.22;;
25319;SDS011;13256;49.012;8.610;2024-03-22T04:33:40;11.43;;;5.70;;
25319;SDS011;13256;49.012;8.610;2024-03-22T04:36:09;10.10;;;5.72;;
25319;SDS011;13256;49.012;8.610;2024-03-22T04:38:39;8.15;;;5.25;;
25319;SDS011;13256;49.012;8.610;2024-03-22T04:41:06;9.35;;;5.25;;
25319;SDS011;13256;49.012;8.610;2024-03-22T04:43:33;11.38;;;6.07;;
25319;SDS011;13256;49.012;8.610;2024-03-22T04:46:00;10.10;;;5.45;;
25319;SDS011;13256;49.012;8.610;2024-03-22T04:48:27;11.43;;;6.60;;
25319;SDS011;13256;49.012;8.610;2024-03-22T04:50:57;12.52;;;6.07;;
25319;SDS011;13256;49.012;8.610;2024-03-22T04:53:27;12.02;;;6.10;;
25319;SDS011;13256;49.012;8.610;2024-03-22T04:55:54;12.00;;;5.95;;
25319;SDS011;13256;49.012;8.610;2024-03-22T04:58:21;11.60;;;7.63;;
25319;SDS011;13256;49.012;8.610;2024-03-22T05:00:48;11.63;;;7.07;;
25319;SDS011;13256;49.012;8.610;2024-03-22T05:03:16;10.90;;;6.65;;
25319;SDS011;13256;49.012;8.610;2024-03-22T05:05:51;14.02;;;6.50;;
25319;SDS011;13256;49.012;8.610;2024-03-22T05:08:26;13.13;;;6.80;;
25319;SDS011;13256;49.012;8.610;2024-03-22T05:10:58;12.45;;;6.93;;
25319;SDS011;13256;49.012;8.610;2024-03-22T05:13:27;12.23;;;5.82;;
25319;SDS011;13256;49.012;8.610;2024-03-22T05:15:59;12.60;;;6.63;;
25319;SDS011;13256;49.012;8.610;2024-03-22T05:18:40;10.15;;;5.97;;
25319;SDS011;13256;49.012;8.610;2024-03-22T05:21:16;8.73;;;5.78;;
25319;SDS011;13256;49.012;8.610;2024-03-22T05:23:43;12.05;;;7.43;;
25319;SDS011;13256;49.012;8.610;2024-03-22T05:26:10;13.20;;;7.32;;
25319;SDS011;13256;49.012;8.610;2024-03-22T05:28:49;14.98;;;8.02;;
25319;SDS011;13256;49.012;8.610;2024-03-22T05:31:23;26.05;;;10.75;;
25319;SDS011;13256;49.012;8.610;2024-03-22T05:33:50;18.80;;;9.55;;
25319;SDS011;13256;49.012;8.610;2024-03-22T05:36:17;19.50;;;9.63;;
25319;SDS011;13256;49.012;8.610;2024-03-22T05:39:03;18.13;;;9.60;;
25319;SDS011;13256;49.012;8.610;2024-03-22T05:41:32;18.63;;;9.10;;
25319;SDS011;13256;49.012;8.610;2024-03-22T05:44:10;18.42;;;8.77;;
25319;SDS011;13256;49.012;8.610;2024-03-22T05:46:37;20.85;;;9.20;;
25319;SDS011;13256;49.012;8.610;2024-03-22T05:49:14;17.27;;;8.90;;
25319;SDS011;13256;49.012;8.610;2024-03-22T05:51:42;18.45;;;8.57;;
25319;SDS011;13256;49.012;8.610;2024-03-22T05:54:17;17.85;;;9.20;;
25319;SDS011;13256;49.012;8.610;2024-03-22T05:56:44;17.70;;;8.60;;
25319;SDS011;13256;49.012;8.610;2024-03-22T05:59:25;17.48;;;8.90;;
25319;SDS011;13256;49.012;8.610;2024-03-22T06:01:52;14.15;;;7.88;;
25319;SDS011;13256;49.012;8.610;2024-03-22T06:04:33;14.77;;;7.57;;
25319;SDS011;13256;49.012;8.610;2024-03-22T06:07:48;12.68;;;7.45;;
25319;SDS011;13256;49.012;8.610;2024-03-22T06:10:20;12.77;;;7.85;;
25319;SDS011;13256;49.012;8.610;2024-03-22T06:15:17;12.63;;;6.68;;
25319;SDS011;13256;49.012;8.610;2024-03-22T06:17:55;10.30;;;7.30;;
25319;SDS011;13256;49.012;8.610;2024-03-22T06:20:22;14.93;;;7.35;;
25319;SDS011;13256;49.012;8.610;2024-03-22T06:22:49;12.93;;;7.93;;
25319;SDS011;13256;49.012;8.610;2024-03-22T06:25:16;14.55;;;8.10;;
25319;SDS011;13256;49.012;8.610;2024-03-22T06:27:46;11.80;;;6.72;;
25319;SDS011;13256;49.012;8.610;2024-03-22T06:30:14;17.95;;;8.00;;
25319;SDS011;13256;49.012;8.610;2024-03-22T06:32:46;37.65;;;8.57;;
25319;SDS011;13256;49.012;8.610;2024-03-22T06:37:49;20.25;;;8.13;;
25319;SDS011;13256;49.012;8.610;2024-03-22T06:40:16;23.23;;;9.70;;
25319;SDS011;13256;49.012;8.610;2024-03-22T06:42:51;20.73;;;8.82;;
25319;SDS011;13256;49.012;8.610;2024-03-22T06:45:33;15.38;;;7.55;;
25319;SDS011;13256;49.012;8.610;2024-03-22T06:48:06;11.55;;;6.40;;
25319;SDS011;13256;49.012;8.610;2024-03-22T06:50:33;13.20;;;6.05;;
25319;SDS011;13256;49.012;8.610;2024-03-22T06:53:00;15.27;;;6.43;;
25319;SDS011;13256;49.012;8.610;2024-03-22T06:55:37;18.15;;;6.55;;
25319;SDS011;13256;49.012;8.610;2024-03-22T07:00:33;13.80;;;6.38;;
25319;SDS011;13256;49.012;8.610;2024-03-22T07:03:01;14.75;;;7.22;;
25319;SDS011;13256;49.012;8.610;2024-03-22T07:05:29;11.90;;;6.35;;
25319;SDS011;13256;49.012;8.610;2024-03-22T07:07:57;12.13;;;6.72;;
25319;SDS011;13256;49.012;8.610;2024-03-22T07:10:26;13.85;;;6.47;;
25319;SDS011;13256;49.012;8.610;2024-03-22T07:12:59;11.00;;;6.57;;
25319;SDS011;13256;49.012;8.610;2024-03-22T07:15:26;9.05;;;6.03;;
25319;SDS011;13256;49.012;8.610;2024-03-22T07:17:59;6.80;;;4.65;;
25319;SDS011;13256;49.012;8.610;2024-03-22T07:20:27;8.75;;;5.03;;
25319;SDS011;13256;49.012;8.610;2024-03-22T07:22:59;11.05;;;5.38;;
25319;SDS011;13256;49.012;8.610;2024-03-22T07:25:27;7.90;;;5.00;;
25319;SDS011;13256;49.012;8.610;2024-03-22T07:27:54;9.15;;;4.95;;
25319;SDS011;13256;49.012;8.610;2024-03-22T07:30:25;8.60;;;4.20;;
25319;SDS011;13256;49.012;8.610;2024-03-22T07:33:04;8.00;;;4.25;;
25319;SDS011;13256;49.012;8.610;2024-03-22T07:35:37;7.43;;;4.47;;
25319;SDS011;13256;49.012;8.610;2024-03-22T07:38:04;5.97;;;4.10;;
25319;SDS011;13256;49.012;8.610;2024-03-22T07:40:57;6.32;;;4.78;;
25319;SDS011;13256;49.012;8.610;2024-03-22T07:43:33;8.10;;;4.70;;
25319;SDS011;13256;49.012;8.610;2024-03-22T07:46:01;6.93;;;4.22;;
25319;SDS011;13256;49.012;8.610;2024-03-22T07:48:30;8.98;;;4.57;;
25319;SDS011;13256;49.012;8.610;2024-03-22T07:50:58;8.75;;;4.68;;
25319;SDS011;13256;49.012;8.610;2024-03-22T07:53:42;10.40;;;4.45;;
25319;SDS011;13256;49.012;8.610;2024-03-22T07:56:10;7.30;;;4.63;;
25319;SDS011;13256;49.012;8.610;2024-03-22T07:58:39;8.60;;;4.30;;
25319;SDS011;13256;49.012;8.610;2024-03-22T08:01:06;9.88;;;4.97;;
25319;SDS011;13256;49.012;8.610;2024-03-22T08:03:33;8.02;;;5.00;;
25319;SDS011;13256;49.012;8.610;2024-03-22T08:06:01;13.20;;;5.65;;
25319;SDS011;13256;49.012;8.610;2024-03-22T08:08:29;9.73;;;4.72;;
25319;SDS011;13256;49.012;8.610;2024-03-22T08:10:58;9.57;;;5.50;;
25319;SDS011;13256;49.012;8.610;2024-03-22T08:19:26;8.88;;;4.60;;
25319;SDS011;13256;49.012;8.610;2024-03-22T08:24:54;9.73;;;5.30;;
25319;SDS011;13256;49.012;8.610;2024-03-22T08:27:23;8.77;;;5.00;;
25319;SDS011;13256;49.012;8.610;2024-03-22T08:30:22;8.38;;;5.18;;
25319;SDS011;13256;49.012;8.610;2024-03-22T08:32:53;12.23;;;5.68;;
25319;SDS011;13256;49.012;8.610;2024-03-22T08:35:22;9.38;;;5.55;;
25319;SDS011;13256;49.012;8.610;2024-03-22T08:37:51;10.63;;;5.15;;
25319;SDS011;13256;49.012;8.610;2024-03-22T08:40:18;8.52;;;5.30;;
25319;SDS011;13256;49.012;8.610;2024-03-22T08:42:46;11.23;;;5.50;;
25319;SDS011;13256;49.012;8.610;2024-03-22T08:45:16;11.45;;;4.95;;
25319;SDS011;13256;49.012;8.610;2024-03-22T08:47:49;10.20;;;5.50;;
25319;SDS011;13256;49.012;8.610;2024-03-22T08:50:17;11.27;;;5.55;;
25319;SDS011;13256;49.012;8.610;2024-03-22T08:52:51;13.57;;;6.20;;
25319;SDS011;13256;49.012;8.610;2024-03-22T08:55:19;9.15;;;6.05;;
25319;SDS011;13256;49.012;8.610;2024-03-22T08:57:47;9.35;;;5.88;;
25319;SDS011;13256;49.012;8.610;2024-03-22T09:00:24;9.23;;;5.43;;
25319;SDS011;13256;49.012;8.610;2024-03-22T09:03:06;8.77;;;5.40;;
25319;SDS011;13256;49.012;8.610;2024-03-22T09:05:39;10.57;;;4.88;;
25319;SDS011;13256;49.012;8.610;2024-03-22T09:08:14;8.85;;;5.15;;
25319;SDS011;13256;49.012;8.610;2024-03-22T09:10:40;12.70;;;5.03;;
25319;SDS011;13256;49.012;8.610;2024-03-22T09:13:09;10.73;;;4.50;;
25319;SDS011;13256;49.012;8.610;2024-03-22T09:15:39;8.35;;;4.93;;
25319;SDS011;13256;49.012;8.610;2024-03-22T09:18:06;9.15;;;4.78;;
25319;SDS011;13256;49.012;8.610;2024-03-22T09:20:37;12.15;;;4.80;;
25319;SDS011;13256;49.012;8.610;2024-03-22T09:23:05;8.25;;;4.75;;
25319;SDS011;13256;49.012;8.610;2024-03-22T09:25:34;8.95;;;4.68;;
25319;SDS011;13256;49.012;8.610;2024-03-22T09:28:01;9.60;;;4.80;;
25319;SDS011;13256;49.012;8.610;2024-03-22T09:30:29;8.55;;;4.82;;
25319;SDS011;13256;49.012;8.610;2024-03-22T09:33:09;11.02;;;5.47;;
25319;SDS011;13256;49.012;8.610;2024-03-22T09:35:42;8.10;;;5.07;;
25319;SDS011;13256;49.012;8.610;2024-03-22T09:38:12;10.45;;;5.63;;
25319;SDS011;13256;49.012;8.610;2024-03-22T09:40:39;7.43;;;5.05;;
25319;SDS011;13256;49.012;8.610;2024-03-22T09:43:08;9.02;;;4.95;;
25319;SDS011;13256;49.012;8.610;2024-03-22T09:45:38;9.68;;;4.82;;
25319;SDS011;13256;49.012;8.610;2024-03-22T09:51:04;9.52;;;4.80;;
25319;SDS011;13256;49.012;8.610;2024-03-22T09:53:33;10.05;;;5.65;;
25319;SDS011;13256;49.012;8.610;2024-03-22T09:56:02;10.27;;;5.53;;
25319;SDS011;13256;49.012;8.610;2024-03-22T09:58:29;12.90;;;5.40;;
25319;SDS011;13256;49.012;8.610;2024-03-22T10:00:56;12.05;;;5.28;;
25319;SDS011;13256;49.012;8.610;2024-03-22T10:03:27;12.45;;;6.00;;
25319;SDS011;13256;49.012;8.610;2024-03-22T10:05:56;8.20;;;4.90;;
25319;SDS011;13256;49.012;8.610;2024-03-22T10:08:24;9.88;;;4.53;;
25319;SDS011;13256;49.012;8.610;2024-03-22T10:10:51;7.18;;;4.70;;
25319;SDS011;13256;49.012;8.610;2024-03-22T10:13:18;11.07;;;5.13;;
25319;SDS011;13256;49.012;8.610;2024-03-22T10:15:47;12.30;;;6.03;;
25319;SDS011;13256;49.012;8.610;2024-03-22T10:18:15;8.95;;;5.15;;
25319;SDS011;13256;49.012;8.610;2024-03-22T10:20:42;9.77;;;5.20;;
25319;SDS011;13256;49.012;8.610;2024-03-22T10:23:09;11.90;;;5.50;;
25319;SDS011;13256;49.012;8.610;2024-03-22T10:25:40;10.02;;;5.35;;
25319;SDS011;13256;49.012;8.610;2024-03-22T10:28:08;11.23;;;5.63;;
25319;SDS011;13256;49.012;8.610;2024-03-22T10:30:41;10.60;;;4.82;;
25319;SDS011;13256;49.012;8.610;2024-03-22T10:33:10;9.13;;;5.20;;
25319;SDS011;13256;49.012;8.610;2024-03-22T10:35:44;10.00;;;5.78;;
25319;SDS011;13256;49.012;8.610;2024-03-22T10:38:23;13.10;;;4.80;;
25319;SDS011;13256;49.012;8.610;2024-03-22T10:40:50;8.80;;;5.18;;
25319;SDS011;13256;49.012;8.610;2024-03-22T10:43:17;13.50;;;5.70;;
25319;SDS011;13256;49.012;8.610;2024-03-22T10:45:45;10.88;;;5.80;;
25319;SDS011;13256;49.012;8.610;2024-03-22T10:48:17;12.45;;;5.95;;
25319;SDS011;13256;49.012;8.610;2024-03-22T10:50:46;11.93;;;5.53;;
25319;SDS011;13256;49.012;8.610;2024-03-22T10:53:30;9.60;;;5.25;;
25319;SDS011;13256;49.012;8.610;2024-03-22T10:55:59;9.65;;;5.40;;
25319;SDS011;13256;49.012;8.610;2024-03-22T10:58:28;10.45;;;4.82;;
25319;SDS011;13256;49.012;8.610;2024-03-22T11:00:58;7.65;;;4.60;;
25319;SDS011;13256;49.012;8.610;2024-03-22T11:03:25;10.25;;;4.47;;
25319;SDS011;13256;49.012;8.610;2024-03-22T11:05:55;7.00;;;4.35;;
25319;SDS011;13256;49.012;8.610;2024-03-22T11:08:25;7.70;;;4.22;;
25319;SDS011;13256;49.012;8.610;2024-03-22T11:10:53;8.90;;;4.30;;
25319;SDS011;13256;49.012;8.610;2024-03-22T11:13:22;11.05;;;4.78;;
25319;SDS011;13256;49.012;8.610;2024-03-22T11:15:49;9.68;;;3.83;;
25319;SDS011;13256;49.012;8.610;2024-03-22T11:18:16;13.07;;;4.60;;
25319;SDS011;13256;49.012;8.610;2024-03-22T11:20:46;8.55;;;4.55;;
25319;SDS011;13256;49.012;8.610;2024-03-22T11:23:13;6.57;;;3.58;;
25319;SDS011;13256;49.012;8.610;2024-03-22T11:31:40;8.20;;;3.95;;
25319;SDS011;13256;49.012;8.610;2024-03-22T11:34:17;9.30;;;3.65;;
25319;SDS011;13256;49.012;8.610;2024-03-22T11:36:54;4.07;;;2.60;;
25319;SDS011;13256;49.012;8.610;2024-03-22T11:39:25;5.80;;;2.70;;
25319;SDS011;13256;49.012;8.610;2024-03-22T11:41:52;6.18;;;2.95;;
25319;SDS011;13256;49.012;8.610;2024-03-22T11:44:19;5.22;;;3.05;;
25319;SDS011;13256;49.012;8.610;2024-03-22T11:46:48;8.68;;;3.10;;
25319;SDS011;13256;49.012;8.610;2024-03-22T11:49:15;5.70;;;2.75;;
25319;SDS011;13256;49.012;8.610;2024-03-22T11:51:42;5.15;;;2.70;;
25319;SDS011;13256;49.012;8.610;2024-03-22T11:54:12;7.28;;;2.30;;
25319;SDS011;13256;49.012;8.610;2024-03-22T11:56:39;4.70;;;2.50;;
25319;SDS011;13256;49.012;8.610;2024-03-22T11:59:12;8.18;;;2.97;;
25319;SDS011;13256;49.012;8.610;2024-03-22T12:01:43;5.38;;;2.03;;
25319;SDS011;13256;49.012;8.610;2024-03-22T12:04:11;2.63;;;2.00;;
25319;SDS011;13256;49.012;8.610;2024-03-22T12:06:42;4.15;;;1.77;;
25319;SDS011;13256;49.012;8.610;2024-03-22T12:09:17;4.20;;;2.42;;
25319;SDS011;13256;49.012;8.610;2024-03-22T12:11:54;5.50;;;2.47;;
25319;SDS011;13256;49.012;8.610;2024-03-22T12:14:28;5.70;;;2.45;;
25319;SDS011;13256;49.012;8.610;2024-03-22T12:16:56;7.00;;;2.92;;
25319;SDS011;13256;49.012;8.610;2024-03-22T12:19:30;7.15;;;2.60;;
25319;SDS011;13256;49.012;8.610;2024-03-22T12:22:14;4.70;;;2.83;;
25319;SDS011;13256;49.012;8.610;2024-03-22T12:24:59;5.95;;;2.90;;
25319;SDS011;13256;49.012;8.610;2024-03-22T12:27:31;3.40;;;2.20;;
25319;SDS011;13256;49.012;8.610;2024-03-22T12:30:04;4.03;;;2.47;;
25319;SDS011;13256;49.012;8.610;2024-03-22T12:32:32;7.15;;;2.85;;
25319;SDS011;13256;49.012;8.610;2024-03-22T12:35:00;4.55;;;2.42;;
25319;SDS011;13256;49.012;8.610;2024-03-22T12:37:40;8.02;;;2.63;;
25319;SDS011;13256;49.012;8.610;2024-03-22T12:40:07;6.63;;;3.08;;
25319;SDS011;13256;49.012;8.610;2024-03-22T12:42:34;5.88;;;2.72;;
25319;SDS011;13256;49.012;8.610;2024-03-22T12:45:04;6.00;;;3.05;;
25319;SDS011;13256;49.012;8.610;2024-03-22T12:47:31;6.45;;;3.03;;
25319;SDS011;13256;49.012;8.610;2024-03-22T12:50:08;9.85;;;2.80;;
25319;SDS011;13256;49.012;8.610;2024-03-22T12:52:35;6.15;;;2.67;;
25319;SDS011;13256;49.012;8.610;2024-03-22T12:55:01;6.50;;;3.15;;
25319;SDS011;13256;49.012;8.610;2024-03-22T12:57:28;6.43;;;2.70;;
25319;SDS011;13256;49.012;8.610;2024-03-22T12:59:58;5.28;;;2.60;;
25319;SDS011;13256;49.012;8.610;2024-03-22T13:02:25;4.40;;;2.70;;
25319;SDS011;13256;49.012;8.610;2024-03-22T13:04:54;6.93;;;2.42;;
25319;SDS011;13256;49.012;8.610;2024-03-22T13:07:21;5.28;;;2.97;;
25319;SDS011;13256;49.012;8.610;2024-03-22T13:09:53;6.10;;;2.90;;
25319;SDS011;13256;49.012;8.610;2024-03-22T13:12:20;6.40;;;2.80;;
25319;SDS011;13256;49.012;8.610;2024-03-22T13:14:46;5.75;;;3.00;;
25319;SDS011;13256;49.012;8.610;2024-03-22T13:17:20;5.18;;;3.10;;
25319;SDS011;13256;49.012;8.610;2024-03-22T13:19:47;7.57;;;2.53;;
25319;SDS011;13256;49.012;8.610;2024-03-22T13:22:14;4.95;;;2.20;;
25319;SDS011;13256;49.012;8.610;2024-03-22T13:24:49;3.90;;;2.15;;
25319;SDS011;13256;49.012;8.610;2024-03-22T13:29:43;9.05;;;2.15;;
25319;SDS011;13256;49.012;8.610;2024-03-22T13:32:17;6.30;;;3.38;;
25319;SDS011;13256;49.012;8.610;2024-03-22T13:34:50;3.05;;;2.10;;
25319;SDS011;13256;49.012;8.610;2024-03-22T13:37:27;4.90;;;2.30;;
25319;SDS011;13256;49.012;8.610;2024-03-22T13:40:05;4.80;;;2.15;;
25319;SDS011;13256;49.012;8.610;2024-03-22T13:42:40;7.32;;;2.40;;
25319;SDS011;13256;49.012;8.610;2024-03-22T13:45:09;4.40;;;2.22;;
25319;SDS011;13256;49.012;8.610;2024-03-22T13:47:36;7.70;;;2.40;;
25319;SDS011;13256;49.012;8.610;2024-03-22T13:50:13;4.70;;;2.17;;
25319;SDS011;13256;49.012;8.610;2024-03-22T13:52:39;6.38;;;2.28;;
25319;SDS011;13256;49.012;8.610;2024-03-22T13:55:06;5.45;;;2.05;;
25319;SDS011;13256;49.012;8.610;2024-03-22T13:57:34;2.65;;;2.15;;
25319;SDS011;13256;49.012;8.610;2024-03-22T14:00:03;3.97;;;2.25;;
25319;SDS011;13256;49.012;8.610;2024-03-22T14:02:42;5.10;;;2.40;;
25319;SDS011;13256;49.012;8.610;2024-03-22T14:17:15;3.17;;;2.08;;
25319;SDS011;13256;49.012;8.610;2024-03-22T14:20:06;6.63;;;2.22;;
25319;SDS011;13256;49.012;8.610;2024-03-22T14:22:41;5.97;;;2.10;;
25319;SDS011;13256;49.012;8.610;2024-03-22T14:25:11;6.80;;;2.65;;
25319;SDS011;13256;49.012;8.610;2024-03-22T14:27:39;6.15;;;2.30;;
25319;SDS011;13256;49.012;8.610;2024-03-22T14:30:11;3.83;;;2.15;;
25319;SDS011;13256;49.012;8.610;2024-03-22T14:36:44;4.72;;;2.63;;
25319;SDS011;13256;49.012;8.610;2024-03-22T14:39:11;5.10;;;2.40;;
25319;SDS011;13256;49.012;8.610;2024-03-22T14:42:09;5.70;;;2.67;;
25319;SDS011;13256;49.012;8.610;2024-03-22T14:44:36;5.47;;;2.90;;
25319;SDS011;13256;49.012;8.610;2024-03-22T14:47:04;6.85;;;3.00;;
25319;SDS011;13256;49.012;8.610;2024-03-22T14:49:33;3.95;;;2.38;;
25319;SDS011;13256;49.012;8.610;2024-03-22T14:52:08;3.92;;;2.72;;
25319;SDS011;13256;49.012;8.610;2024-03-22T14:55:00;6.20;;;2.70;;
25319;SDS011;13256;49.012;8.610;2024-03-22T14:57:35;4.97;;;2.85;;
25319;SDS011;13256;49.012;8.610;2024-03-22T15:00:02;6.22;;;3.30;;
25319;SDS011;13256;49.012;8.610;2024-03-22T15:02:38;8.55;;;3.45;;
25319;SDS011;13256;49.012;8.610;2024-03-22T15:05:35;6.50;;;3.00;;
25319;SDS011;13256;49.012;8.610;2024-03-22T15:08:04;5.70;;;2.85;;
25319;SDS011;13256;49.012;8.610;2024-03-22T15:10:37;4.72;;;2.92;;
25319;SDS011;13256;49.012;8.610;2024-03-22T15:13:05;10.00;;;3.38;;
25319;SDS011;13256;49.012;8.610;2024-03-22T15:15:35;7.57;;;3.10;;
25319;SDS011;13256;49.012;8.610;2024-03-22T15:18:03;5.22;;;2.95;;
25319;SDS011;13256;49.012;8.610;2024-03-22T15:21:06;6.57;;;3.90;;
25319;SDS011;13256;49.012;8.610;2024-03-22T15:23:34;8.95;;;3.80;;
25319;SDS011;13256;49.012;8.610;2024-03-22T15:26:04;6.68;;;3.50;;
25319;SDS011;13256;49.012;8.610;2024-03-22T15:28:34;7.40;;;3.30;;
25319;SDS011;13256;49.012;8.610;2024-03-22T15:31:04;6.85;;;3.78;;
25319;SDS011;13256;49.012;8.610;2024-03-22T15:33:51;5.10;;;3.08;;
25319;SDS011;13256;49.012;8.610;2024-03-22T15:36:22;8.30;;;2.83;;
25319;SDS011;13256;49.012;8.610;2024-03-22T15:39:00;8.90;;;3.72;;
25319;SDS011;13256;49.012;8.610;2024-03-22T15:41:41;5.55;;;3.03;;
25319;SDS011;13256;49.012;8.610;2024-03-22T15:44:25;8.32;;;4.00;;
25319;SDS011;13256;49.012;8.610;2024-03-22T15:46:57;10.30;;;4.32;;
25319;SDS011;13256;49.012;8.610;2024-03-22T15:49:31;6.70;;;3.38;;
25319;SDS011;13256;49.012;8.610;2024-03-22T15:52:05;4.97;;;2.65;;
25319;SDS011;13256;49.012;8.610;2024-03-22T15:54:33;10.30;;;4.13;;